Beaman, Iowa
Current Conditions -  °F | °C
As of 11:23 AM on Wednesday 26 Nov 2014 (Local Time) from KMIW Reporting Station
Light Snow Light Snow  
Wind Chill: 18°   Ceiling: 3000
Heat Index: 29°   Visibility: 1.7mi
Dew Point: 24°   Wind: 14mph
Humidity: 82%   Direction: 80°E
Pressure: 29.99"   Gusts: NA
Location:  42.22°N, 92.82°W
Report Text: KMIW 261723Z AUTO 08012KT 1 3/4SM -SN BKN030 OVC039 M02/M04 A2999 RMK AO2 P0000 T10171044
Loading
Personal Weather Stations






























Interactive Weather Map New forecast layout! Learn more

10-Day Weather Forecast

Advertisements
Track Severe Weather on mobile